Time;durP1;ratioP1;P1;durP2;ratioP2;P2;SDS_P1;SDS_P2;PMS_P1;PMS_P2;Temp;Humidity;BMP_temperature;BMP_pressure;BME280_temperature;BME280_humidity;BME280_pressure;Samples;Min_cycle;Max_cycle;Signal;HPM_P1;HPM_P2
2021/09/13 04:36:55;;;;;;;3.90;3.17;;;;;;;;;;6252514;22;20078;-81
2021/09/13 04:39:21;;;;;;;5.30;3.38;;;;;;;;;;6250291;23;20094;-81
2021/09/13 04:41:46;;;;;;;4.30;3.25;;;;;;;;;;6249418;23;20006;-82
2021/09/13 04:44:11;;;;;;;5.85;3.30;;;;;;;;;;6222654;23;20007;-82
2021/09/13 04:46:37;;;;;;;4.25;3.50;;;;;;;;;;6222894;23;20004;-82
2021/09/13 04:49:03;;;;;;;3.95;3.08;;;;;;;;;;6222130;23;20142;-82
2021/09/13 04:51:31;;;;;;;5.00;3.50;;;;;;;;;;6249178;23;20004;-82
2021/09/13 04:53:57;;;;;;;3.80;3.38;;;;;;;;;;6221725;23;20004;-82
2021/09/13 04:56:22;;;;;;;5.53;3.67;;;;;;;;;;6248688;23;20004;-83
2021/09/13 04:58:48;;;;;;;5.53;3.65;;;;;;;;;;6221606;23;20521;-83
2021/09/13 05:01:13;;;;;;;3.75;3.00;;;;;;;;;;6219342;23;20014;-82
2021/09/13 05:03:39;;;;;;;5.93;3.42;;;;;;;;;;6219391;23;20023;-83
2021/09/13 05:06:05;;;;;;;4.53;3.25;;;;;;;;;;6221524;23;20000;-82
2021/09/13 05:08:50;;;;;;;4.15;3.75;;;;;;;;;;6221609;23;20062;-82
2021/09/13 05:11:15;;;;;;;4.72;3.95;;;;;;;;;;6219927;23;20020;-82
2021/09/13 05:13:41;;;;;;;3.92;3.53;;;;;;;;;;6249303;23;20000;-82
2021/09/13 05:16:06;;;;;;;4.18;3.45;;;;;;;;;;6220835;23;20350;-82
2021/09/13 05:18:33;;;;;;;7.20;3.55;;;;;;;;;;6220752;23;20019;-82
2021/09/13 05:20:59;;;;;;;6.32;3.40;;;;;;;;;;6245451;23;20053;-82
2021/09/13 05:23:24;;;;;;;6.10;3.50;;;;;;;;;;6246701;23;20074;-82
2021/09/13 05:25:50;;;;;;;5.78;3.75;;;;;;;;;;6248091;23;20004;-82
2021/09/13 05:28:15;;;;;;;7.88;3.70;;;;;;;;;;6244694;23;20308;-82
2021/09/13 05:30:41;;;;;;;5.15;3.40;;;;;;;;;;6252583;23;20070;-83
2021/09/13 05:33:08;;;;;;;3.95;3.55;;;;;;;;;;6255485;23;20000;-83
2021/09/13 05:35:34;;;;;;;5.72;3.70;;;;;;;;;;6242748;23;20022;-83
2021/09/13 05:38:01;;;;;;;7.88;3.95;;;;;;;;;;6251746;23;20358;-82
2021/09/13 05:40:26;;;;;;;6.95;3.90;;;;;;;;;;6248337;23;20000;-82
2021/09/13 05:42:52;;;;;;;5.78;4.22;;;;;;;;;;6249944;23;20015;-82
2021/09/13 05:45:18;;;;;;;7.68;4.55;;;;;;;;;;6248423;23;19996;-82
2021/09/13 07:43:03;;;;;;;6.70;4.65;;;;;;;;;;6215118;23;20040;-86
2021/09/13 07:46:48;;;;;;;9.10;5.57;;;;;;;;;;6214449;23;20021;-87
2021/09/13 08:09:59;;;;;;;8.95;4.90;;;;;;;;;;6212387;22;20005;-87
2021/09/13 08:13:05;;;;;;;12.05;4.80;;;;;;;;;;6165335;23;20031;-86
2021/09/13 08:18:54;;;;;;;8.02;5.10;;;;;;;;;;6242033;23;20011;-86
2021/09/13 08:22:22;;;;;;;15.38;4.80;;;;;;;;;;6242385;22;20044;-86
2021/09/13 08:27:59;;;;;;;6.57;4.20;;;;;;;;;;6284072;22;20027;-85
2021/09/13 09:32:28;;;;;;;5.70;3.40;;;;;;;;;;6249918;22;20008;-86
2021/09/13 09:35:18;;;;;;;5.38;3.50;;;;;;;;;;6238532;23;20047;-86
2021/09/13 11:47:44;;;;;;;4.00;2.70;;;;;;;;;;6278050;22;20030;-84
2021/09/13 11:53:32;;;;;;;4.88;2.50;;;;;;;;;;6294941;22;20086;-86
2021/09/13 11:56:02;;;;;;;2.80;2.50;;;;;;;;;;6252924;22;20385;-86
2021/09/13 11:58:28;;;;;;;3.17;2.40;;;;;;;;;;6276205;22;19999;-87
2021/09/13 12:00:54;;;;;;;5.25;2.60;;;;;;;;;;6248944;22;20003;-87
2021/09/13 12:03:28;;;;;;;3.08;2.70;;;;;;;;;;6249437;22;20485;-87
2021/09/13 12:05:53;;;;;;;3.65;2.83;;;;;;;;;;6249551;22;20000;-88
2021/09/13 12:08:22;;;;;;;3.75;2.40;;;;;;;;;;6276470;22;20062;-85
2021/09/13 12:10:50;;;;;;;4.72;2.58;;;;;;;;;;6249369;22;20000;-88
2021/09/13 12:13:18;;;;;;;2.55;2.28;;;;;;;;;;6276003;22;20038;-90
2021/09/13 12:15:49;;;;;;;3.35;2.42;;;;;;;;;;6248788;22;20000;-88
2021/09/13 12:18:16;;;;;;;2.33;2.05;;;;;;;;;;6276367;22;19999;-89
2021/09/13 12:20:44;;;;;;;4.13;2.60;;;;;;;;;;6276287;22;20011;-90
2021/09/13 12:23:09;;;;;;;2.95;2.50;;;;;;;;;;6276400;22;20418;-89
2021/09/13 12:25:38;;;;;;;4.07;2.35;;;;;;;;;;6275994;22;20030;-90
2021/09/13 12:28:04;;;;;;;2.78;2.15;;;;;;;;;;6248741;22;20010;-89
2021/09/13 12:30:34;;;;;;;2.85;2.28;;;;;;;;;;6248618;22;19999;-88
2021/09/13 12:33:08;;;;;;;2.60;2.17;;;;;;;;;;6248984;22;20381;-88
2021/09/13 12:35:35;;;;;;;3.42;2.70;;;;;;;;;;6275865;22;20464;-89
2021/09/13 12:38:03;;;;;;;3.13;2.42;;;;;;;;;;6275861;22;20434;-89
2021/09/13 12:40:29;;;;;;;4.80;2.20;;;;;;;;;;6248320;22;20007;-89
2021/09/13 12:42:56;;;;;;;4.70;2.30;;;;;;;;;;6248449;22;20006;-89
2021/09/13 12:45:24;;;;;;;3.78;3.22;;;;;;;;;;6248679;22;20023;-89
2021/09/13 12:47:52;;;;;;;2.53;2.30;;;;;;;;;;6275578;22;20047;-88
2021/09/13 12:50:39;;;;;;;4.97;2.15;;;;;;;;;;6276024;22;20000;-88
2021/09/13 12:53:29;;;;;;;3.22;2.25;;;;;;;;;;6275497;22;20334;-88
2021/09/13 12:55:59;;;;;;;;;;;;;;;;;;6276090;22;20079;-87
2021/09/13 12:58:32;;;;;;;3.10;2.43;;;;;;;;;;6275494;22;19910;-87
2021/09/13 13:01:01;;;;;;;5.72;2.50;;;;;;;;;;6248521;22;20007;-88
2021/09/13 13:03:27;;;;;;;4.97;2.72;;;;;;;;;;6248466;22;20004;-89
2021/09/13 13:05:53;;;;;;;2.53;2.08;;;;;;;;;;6248452;22;20128;-89
2021/09/13 13:08:25;;;;;;;4.18;2.35;;;;;;;;;;6248292;22;20004;-88
2021/09/13 13:10:52;;;;;;;3.03;2.50;;;;;;;;;;6275458;22;20019;-88
2021/09/13 13:13:18;;;;;;;4.75;2.47;;;;;;;;;;6276029;22;20008;-88
2021/09/13 13:15:45;;;;;;;7.25;2.65;;;;;;;;;;6275468;22;20445;-90
2021/09/13 13:18:17;;;;;;;3.53;2.15;;;;;;;;;;6248439;22;20030;-88
2021/09/13 13:20:43;;;;;;;6.55;2.80;;;;;;;;;;6248214;22;20003;-86
2021/09/13 13:23:09;;;;;;;3.33;2.50;;;;;;;;;;6248300;22;20428;-87
2021/09/13 13:25:35;;;;;;;3.85;2.25;;;;;;;;;;6247754;22;20023;-87
2021/09/13 13:28:01;;;;;;;4.45;2.60;;;;;;;;;;6275687;22;20006;-87
2021/09/13 13:30:28;;;;;;;3.00;2.47;;;;;;;;;;6248050;22;20041;-89
2021/09/13 13:32:53;;;;;;;4.75;2.88;;;;;;;;;;6275175;22;20076;-87
2021/09/13 13:35:19;;;;;;;4.10;2.80;;;;;;;;;;6275345;22;20003;-87
2021/09/13 13:37:44;;;;;;;3.30;2.65;;;;;;;;;;6247808;22;20004;-88
2021/09/13 13:40:10;;;;;;;4.40;2.67;;;;;;;;;;6247732;22;20004;-87
2021/09/13 13:42:36;;;;;;;3.83;2.30;;;;;;;;;;6275077;22;20045;-87
2021/09/13 13:45:03;;;;;;;5.88;2.60;;;;;;;;;;6248214;22;20011;-87
2021/09/13 13:47:30;;;;;;;3.47;2.45;;;;;;;;;;6247650;22;20016;-87
2021/09/13 13:49:55;;;;;;;7.05;2.78;;;;;;;;;;6248388;22;20003;-89
2021/09/13 13:52:21;;;;;;;2.92;2.45;;;;;;;;;;6275359;22;20440;-88
2021/09/13 13:54:47;;;;;;;3.97;2.33;;;;;;;;;;6247767;22;20444;-91
2021/09/13 13:57:15;;;;;;;3.55;2.08;;;;;;;;;;6248385;22;20041;-89
2021/09/13 13:59:40;;;;;;;3.75;3.00;;;;;;;;;;6247266;22;20525;-92
2021/09/13 14:02:06;;;;;;;4.40;2.45;;;;;;;;;;6275426;22;20027;-90
2021/09/13 14:04:32;;;;;;;4.57;2.38;;;;;;;;;;6275125;22;20026;-87
2021/09/13 14:06:58;;;;;;;3.00;2.60;;;;;;;;;;6275488;22;19996;-90
2021/09/13 14:09:24;;;;;;;3.38;2.10;;;;;;;;;;6247838;22;20053;-91
2021/09/13 14:11:50;;;;;;;2.45;2.20;;;;;;;;;;6274934;22;20341;-87
2021/09/13 14:14:18;;;;;;;3.85;2.42;;;;;;;;;;6248042;22;20126;-90
2021/09/13 14:16:43;;;;;;;4.50;2.40;;;;;;;;;;6247809;22;20004;-91
2021/09/13 14:19:09;;;;;;;2.38;2.15;;;;;;;;;;6274947;22;20006;-89
2021/09/13 14:21:35;;;;;;;3.67;2.22;;;;;;;;;;6247795;22;20000;-89
2021/09/13 14:24:01;;;;;;;2.83;1.88;;;;;;;;;;6275145;22;20026;-91
2021/09/13 14:26:26;;;;;;;3.30;2.15;;;;;;;;;;6247586;22;20341;-89
2021/09/13 14:28:52;;;;;;;3.00;2.05;;;;;;;;;;6275103;22;19999;-91
2021/09/13 14:31:17;;;;;;;3.63;2.45;;;;;;;;;;6275264;22;20050;-91
2021/09/13 14:33:43;;;;;;;2.65;2.30;;;;;;;;;;6247718;22;20004;-91
2021/09/13 14:36:08;;;;;;;4.38;2.38;;;;;;;;;;6274918;22;20011;-91
2021/09/13 14:38:34;;;;;;;5.53;2.30;;;;;;;;;;6248982;22;20030;-90
2021/09/13 14:40:59;;;;;;;5.43;2.50;;;;;;;;;;6276978;22;20098;-89
2021/09/13 14:43:25;;;;;;;5.03;2.50;;;;;;;;;;6277135;22;20499;-90
2021/09/13 14:45:52;;;;;;;3.13;2.15;;;;;;;;;;6245774;22;20007;-88
2021/09/13 14:48:18;;;;;;;2.75;2.08;;;;;;;;;;6275988;22;20012;-90
2021/09/13 14:50:44;;;;;;;3.60;2.20;;;;;;;;;;6276081;22;20003;-90
2021/09/13 14:53:11;;;;;;;2.00;1.80;;;;;;;;;;6247102;22;20023;-90
2021/09/13 14:55:37;;;;;;;3.10;2.00;;;;;;;;;;6248591;22;20342;-90
2021/09/13 14:58:03;;;;;;;3.65;2.10;;;;;;;;;;6276527;22;19995;-89
2021/09/13 15:00:29;;;;;;;2.42;2.03;;;;;;;;;;6274698;22;20031;-88
2021/09/13 15:02:55;;;;;;;4.18;2.05;;;;;;;;;;6247767;22;20003;-88
2021/09/13 15:05:22;;;;;;;3.67;2.28;;;;;;;;;;6276527;22;20067;-86
2021/09/13 15:07:48;;;;;;;5.53;2.00;;;;;;;;;;6248087;22;20375;-90
2021/09/13 15:10:13;;;;;;;3.97;2.10;;;;;;;;;;6249708;22;20004;-86
2021/09/13 15:12:39;;;;;;;4.15;2.05;;;;;;;;;;6275900;22;19995;-90
2021/09/13 15:15:05;;;;;;;3.05;1.90;;;;;;;;;;6249322;22;19999;-90
2021/09/13 15:17:30;;;;;;;3.20;2.10;;;;;;;;;;6276592;22;19995;-89
2021/09/13 15:19:59;;;;;;;2.67;2.10;;;;;;;;;;6249743;22;20034;-90
2021/09/13 15:22:25;;;;;;;3.03;2.10;;;;;;;;;;6275272;22;20027;-89
2021/09/13 15:24:50;;;;;;;4.90;1.73;;;;;;;;;;6276448;22;20003;-90
2021/09/13 15:27:16;;;;;;;3.17;2.13;;;;;;;;;;6276579;22;20329;-89
2021/09/13 15:29:42;;;;;;;3.25;2.00;;;;;;;;;;6275333;22;20369;-90
2021/09/13 15:32:09;;;;;;;3.17;2.00;;;;;;;;;;6247541;22;20113;-87
2021/09/13 15:34:35;;;;;;;6.55;2.15;;;;;;;;;;6275496;22;20000;-90
2021/09/13 15:37:00;;;;;;;2.85;1.98;;;;;;;;;;6247962;22;20341;-88
2021/09/13 15:39:26;;;;;;;3.97;2.10;;;;;;;;;;6248785;22;20000;-86
2021/09/13 15:41:52;;;;;;;8.50;2.40;;;;;;;;;;6274030;22;20373;-89
2021/09/13 15:44:18;;;;;;;5.88;2.10;;;;;;;;;;6248461;22;20107;-89
2021/09/13 15:46:45;;;;;;;4.13;2.55;;;;;;;;;;6248050;22;20027;-88
2021/09/13 15:49:11;;;;;;;3.65;2.40;;;;;;;;;;6247527;22;20353;-87
2021/09/13 15:51:37;;;;;;;3.75;2.40;;;;;;;;;;6247303;22;20002;-90
2021/09/13 15:54:03;;;;;;;6.03;2.63;;;;;;;;;;6275564;22;20006;-90
2021/09/13 15:56:29;;;;;;;3.60;2.60;;;;;;;;;;6275109;22;20067;-90
2021/09/13 15:58:55;;;;;;;3.67;2.60;;;;;;;;;;6248577;22;20392;-88
2021/09/13 16:01:21;;;;;;;4.65;2.78;;;;;;;;;;6247602;22;20012;-90
2021/09/13 16:03:46;;;;;;;3.17;2.88;;;;;;;;;;6248021;22;20022;-90
2021/09/13 16:06:12;;;;;;;3.25;2.40;;;;;;;;;;6275516;22;20000;-89
2021/09/13 16:08:38;;;;;;;3.60;2.75;;;;;;;;;;6248578;22;20007;-89
2021/09/13 16:11:03;;;;;;;3.95;2.60;;;;;;;;;;6248449;22;20068;-90
2021/09/13 16:13:29;;;;;;;2.85;2.55;;;;;;;;;;6275916;22;20007;-89
2021/09/13 16:15:54;;;;;;;6.80;3.00;;;;;;;;;;6248957;22;20004;-88
2021/09/13 16:18:20;;;;;;;6.22;2.60;;;;;;;;;;6276044;22;20000;-89
2021/09/13 16:20:46;;;;;;;5.70;2.95;;;;;;;;;;6249199;22;20084;-90
2021/09/13 16:23:15;;;;;;;6.65;2.85;;;;;;;;;;6248808;22;20504;-90
2021/09/13 16:25:44;;;;;;;3.33;2.60;;;;;;;;;;6276423;22;20023;-90
2021/09/13 16:28:10;;;;;;;5.93;2.80;;;;;;;;;;6276215;22;20121;-89
2021/09/13 16:30:36;;;;;;;7.38;4.55;;;;;;;;;;6276328;22;19995;-90
2021/09/13 16:33:01;;;;;;;16.88;10.82;;;;;;;;;;6248245;22;20456;-89
2021/09/13 16:35:27;;;;;;;3.70;3.08;;;;;;;;;;6275022;22;20004;-88
2021/09/13 16:37:54;;;;;;;6.38;3.00;;;;;;;;;;6248716;22;20003;-86
2021/09/13 16:40:19;;;;;;;5.47;3.60;;;;;;;;;;6249396;22;20000;-89
2021/09/13 16:42:45;;;;;;;7.63;5.50;;;;;;;;;;6249052;22;20022;-87
2021/09/13 16:45:10;;;;;;;4.50;2.70;;;;;;;;;;6249094;22;20086;-85
2021/09/13 16:47:36;;;;;;;7.97;3.40;;;;;;;;;;6248941;22;20069;-89
2021/09/13 16:50:01;;;;;;;6.60;3.15;;;;;;;;;;6248568;22;20008;-88
2021/09/13 16:52:27;;;;;;;6.97;3.30;;;;;;;;;;6276057;22;19996;-88
2021/09/13 16:54:53;;;;;;;4.68;3.20;;;;;;;;;;6249071;22;19999;-86
2021/09/13 16:57:18;;;;;;;4.95;2.92;;;;;;;;;;6248553;22;20031;-89
2021/09/13 16:59:44;;;;;;;4.65;3.33;;;;;;;;;;6248844;22;19996;-89
2021/09/13 17:02:09;;;;;;;5.78;3.28;;;;;;;;;;6247901;22;20015;-86
2021/09/13 17:04:34;;;;;;;5.72;3.65;;;;;;;;;;6275520;22;20447;-90
2021/09/13 17:07:00;;;;;;;4.47;2.90;;;;;;;;;;6248034;22;20074;-89
2021/09/13 17:09:27;;;;;;;5.55;4.10;;;;;;;;;;6248624;22;20000;-89
2021/09/13 17:11:53;;;;;;;4.75;3.50;;;;;;;;;;6249032;22;20326;-89
2021/09/13 17:14:21;;;;;;;4.28;3.47;;;;;;;;;;6275063;22;19995;-89
2021/09/13 17:16:47;;;;;;;4.75;3.45;;;;;;;;;;6274102;22;20337;-89
2021/09/13 17:19:17;;;;;;;6.70;3.63;;;;;;;;;;6246778;22;20082;-90
2021/09/13 17:21:47;;;;;;;7.40;4.07;;;;;;;;;;6246278;22;20004;-87
2021/09/13 17:24:13;;;;;;;6.53;4.00;;;;;;;;;;6269197;22;20000;-91
2021/09/13 17:26:39;;;;;;;14.75;9.27;;;;;;;;;;6275207;22;20011;-88
2021/09/13 17:29:04;;;;;;;7.32;3.47;;;;;;;;;;6248177;22;20004;-89
2021/09/13 17:31:30;;;;;;;7.22;3.78;;;;;;;;;;6274660;22;20406;-90
2021/09/13 17:33:57;;;;;;;5.35;3.95;;;;;;;;;;6276275;22;19999;-90
2021/09/13 17:36:23;;;;;;;4.88;3.78;;;;;;;;;;6247681;22;20007;-90
2021/09/13 17:38:49;;;;;;;7.05;4.40;;;;;;;;;;6245697;22;19999;-91
2021/09/13 17:41:16;;;;;;;6.43;3.90;;;;;;;;;;6273277;22;20087;-91
2021/09/13 17:43:46;;;;;;;5.18;4.13;;;;;;;;;;6247131;22;20010;-90
2021/09/13 17:46:12;;;;;;;6.73;4.17;;;;;;;;;;6244734;22;20007;-90
2021/09/13 17:48:38;;;;;;;7.25;4.30;;;;;;;;;;6244019;22;20019;-90
2021/09/13 17:51:04;;;;;;;9.27;4.35;;;;;;;;;;6244988;22;19995;-91
2021/09/13 17:53:30;;;;;;;5.43;3.80;;;;;;;;;;6270197;22;20031;-87
2021/09/13 17:55:55;;;;;;;5.57;4.07;;;;;;;;;;6271331;22;19999;-87
2021/09/13 17:58:21;;;;;;;6.15;4.30;;;;;;;;;;6271771;22;20049;-89
2021/09/13 18:00:46;;;;;;;6.93;4.50;;;;;;;;;;6246843;22;20031;-87
2021/09/13 18:03:16;;;;;;;4.68;4.05;;;;;;;;;;6243272;22;20465;-88
2021/09/13 18:05:43;;;;;;;6.00;4.07;;;;;;;;;;6273569;22;20039;-88
2021/09/13 18:08:27;;;;;;;6.32;4.22;;;;;;;;;;6247203;22;20430;-89
2021/09/13 18:10:55;;;;;;;6.53;4.50;;;;;;;;;;6274898;22;19992;-88
2021/09/13 18:13:23;;;;;;;6.72;4.25;;;;;;;;;;6247680;22;20031;-89
2021/09/13 18:15:50;;;;;;;7.10;4.35;;;;;;;;;;6246540;22;20011;-89
2021/09/13 18:18:19;;;;;;;8.75;4.70;;;;;;;;;;6273570;22;20004;-90
2021/09/13 18:20:45;;;;;;;7.10;4.50;;;;;;;;;;6246839;22;20061;-89
2021/09/13 18:23:27;;;;;;;10.25;4.25;;;;;;;;;;6248137;22;20003;-90
2021/09/13 18:25:55;;;;;;;8.48;4.80;;;;;;;;;;6273319;22;20010;-87
2021/09/13 18:28:26;;;;;;;6.80;4.25;;;;;;;;;;6248010;22;20083;-85
2021/09/13 18:30:52;;;;;;;6.00;4.45;;;;;;;;;;6246365;22;20004;-87
2021/09/13 18:33:18;;;;;;;9.60;4.53;;;;;;;;;;6247892;22;20003;-88
2021/09/13 18:35:43;;;;;;;6.68;4.50;;;;;;;;;;6247232;22;20007;-87
2021/09/13 18:38:09;;;;;;;6.15;4.10;;;;;;;;;;6247216;22;20055;-85
2021/09/13 18:40:55;;;;;;;7.20;4.38;;;;;;;;;;6273713;22;20049;-86
2021/09/13 18:43:22;;;;;;;7.97;4.95;;;;;;;;;;6247431;22;20502;-87
2021/09/13 18:52:34;;;;;;;7.95;4.43;;;;;;;;;;6256415;23;20035;-86
2021/09/13 18:58:44;;;;;;;6.63;4.63;;;;;;;;;;6258943;22;20038;-85
2021/09/13 20:27:10;;;;;;;6.63;4.05;;;;;;;;;;6232041;22;20035;-81
2021/09/13 20:30:26;;;;;;;8.43;4.18;;;;;;;;;;6213082;23;20025;-81
2021/09/13 20:33:17;;;;;;;8.25;4.05;;;;;;;;;;6162979;23;19997;-81
2021/09/13 20:36:15;;;;;;;6.28;4.00;;;;;;;;;;6123176;23;20006;-81
